createdAt,value
2022-10-02T00:00:52.590Z,14.30
2022-10-02T00:03:23.002Z,14.20
2022-10-02T00:05:52.394Z,14.20
2022-10-02T00:08:23.894Z,14.20
2022-10-02T00:11:00.000Z,14.20
2022-10-02T00:13:28.978Z,14.20
2022-10-02T00:15:56.109Z,14.20
2022-10-02T00:18:25.361Z,14.10
2022-10-02T00:20:55.007Z,14.10
2022-10-02T00:23:26.457Z,14.10
2022-10-02T00:25:57.479Z,14.10
2022-10-02T00:28:42.678Z,14.10
2022-10-02T00:31:20.807Z,14.20
2022-10-02T00:34:05.955Z,14.20
2022-10-02T00:36:41.731Z,14.30
2022-10-02T00:39:11.444Z,14.30
2022-10-02T00:41:48.543Z,14.40
2022-10-02T00:44:23.808Z,14.40
2022-10-02T00:47:05.476Z,14.50
2022-10-02T00:49:46.836Z,14.60
2022-10-02T00:52:20.522Z,14.60
2022-10-02T00:55:03.852Z,14.60
2022-10-02T00:57:53.671Z,14.50
2022-10-02T01:00:21.030Z,14.50
2022-10-02T01:02:47.664Z,14.40
2022-10-02T01:05:14.533Z,14.40
2022-10-02T01:07:42.088Z,14.40
2022-10-02T01:10:09.077Z,14.30
2022-10-02T01:12:35.943Z,14.20
2022-10-02T01:15:02.547Z,14.10
2022-10-02T01:17:31.347Z,14.10
2022-10-02T01:19:59.436Z,14.10
2022-10-02T01:22:45.882Z,14.10
2022-10-02T01:25:12.550Z,14.10
2022-10-02T01:27:39.650Z,14.00
2022-10-02T01:30:10.464Z,13.90
2022-10-02T01:32:39.691Z,13.90
2022-10-02T01:35:06.604Z,13.80
2022-10-02T01:37:34.715Z,13.80
2022-10-02T01:40:10.166Z,13.80
2022-10-02T01:42:37.423Z,13.80
2022-10-02T01:45:05.774Z,13.70
2022-10-02T01:47:38.529Z,13.70
2022-10-02T01:50:23.837Z,13.70
2022-10-02T01:53:09.760Z,13.70
2022-10-02T01:55:36.353Z,13.70
2022-10-02T01:58:05.966Z,13.70
2022-10-02T02:00:55.569Z,13.70
2022-10-02T02:03:24.002Z,13.70
2022-10-02T02:05:56.307Z,13.70
2022-10-02T02:08:31.820Z,13.70
2022-10-02T02:11:09.962Z,13.70
2022-10-02T02:13:45.852Z,13.60
2022-10-02T02:16:25.010Z,13.70
2022-10-02T02:18:57.823Z,13.70
2022-10-02T02:21:27.643Z,13.70
2022-10-02T02:23:55.880Z,13.70
2022-10-02T02:26:24.276Z,13.70
2022-10-02T02:28:56.366Z,13.70
2022-10-02T02:31:25.230Z,13.70
2022-10-02T02:33:58.091Z,13.70
2022-10-02T02:36:25.962Z,13.70
2022-10-02T02:38:54.661Z,13.70
2022-10-02T02:41:26.748Z,13.70
2022-10-02T02:43:59.651Z,13.60
2022-10-02T02:46:32.867Z,13.60
2022-10-02T02:49:09.852Z,13.60
2022-10-02T02:51:39.097Z,13.60
2022-10-02T02:54:23.042Z,13.60
2022-10-02T02:56:51.142Z,13.70
2022-10-02T02:59:18.835Z,13.70
2022-10-02T03:01:45.729Z,13.70
2022-10-02T03:04:13.190Z,13.70
2022-10-02T03:06:41.619Z,13.70
2022-10-02T03:09:11.362Z,13.70
2022-10-02T03:11:47.826Z,13.70
2022-10-02T03:14:30.733Z,13.80
2022-10-02T03:16:57.275Z,13.80
2022-10-02T03:19:23.906Z,13.70
2022-10-02T03:22:09.388Z,13.80
2022-10-02T03:24:50.997Z,13.80
2022-10-02T03:27:20.685Z,13.80
2022-10-02T03:29:51.284Z,13.80
2022-10-02T03:32:18.599Z,13.80
2022-10-02T03:34:45.194Z,13.70
2022-10-02T03:37:11.839Z,13.70
2022-10-02T03:39:45.025Z,13.70
2022-10-02T03:42:12.418Z,13.70
2022-10-02T03:44:39.022Z,13.70
2022-10-02T03:47:05.623Z,13.70
2022-10-02T03:49:32.284Z,13.70
2022-10-02T03:51:58.859Z,13.70
2022-10-02T03:54:26.823Z,13.70
2022-10-02T03:56:57.361Z,13.70
2022-10-02T03:59:33.384Z,13.80
2022-10-02T04:02:01.901Z,13.80
2022-10-02T04:04:38.386Z,13.80
2022-10-02T04:07:07.174Z,13.70
2022-10-02T04:09:37.248Z,13.70
2022-10-02T04:12:12.899Z,13.60
2022-10-02T04:14:44.933Z,13.70
2022-10-02T04:17:23.691Z,13.70
2022-10-02T04:19:57.085Z,13.70
2022-10-02T04:22:32.848Z,13.60
2022-10-02T04:25:19.709Z,13.60
2022-10-02T04:27:55.483Z,13.60
2022-10-02T04:30:22.172Z,13.60
2022-10-02T04:32:49.451Z,13.60
2022-10-02T04:35:34.955Z,13.60
2022-10-02T04:38:10.265Z,13.60
2022-10-02T04:40:36.925Z,13.50
2022-10-02T04:43:18.856Z,13.50
2022-10-02T04:45:48.726Z,13.50
2022-10-02T04:48:15.391Z,13.40
2022-10-02T04:51:00.684Z,13.40
2022-10-02T04:53:39.650Z,13.40
2022-10-02T04:56:21.370Z,13.40
2022-10-02T04:58:54.063Z,13.40
2022-10-02T05:01:20.755Z,13.30
2022-10-02T05:03:53.299Z,13.30
2022-10-02T05:06:25.984Z,13.30
2022-10-02T05:08:59.449Z,13.30
2022-10-02T05:11:32.778Z,13.20
2022-10-02T05:14:08.500Z,13.30
2022-10-02T05:16:44.119Z,13.30
2022-10-02T05:19:19.583Z,13.30
2022-10-02T05:22:04.673Z,13.30
2022-10-02T05:24:31.194Z,13.40
2022-10-02T05:27:03.820Z,13.40
2022-10-02T05:29:33.460Z,13.40
2022-10-02T05:32:29.477Z,13.50
2022-10-02T05:35:02.322Z,13.50
2022-10-02T05:37:47.203Z,13.60
2022-10-02T05:40:20.610Z,13.60
2022-10-02T05:43:02.425Z,13.70
2022-10-02T05:45:49.483Z,13.70
2022-10-02T05:48:18.717Z,13.70
2022-10-02T05:50:47.884Z,13.60
2022-10-02T05:53:23.029Z,13.60
2022-10-02T05:55:52.856Z,13.60
2022-10-02T05:58:23.724Z,13.60
2022-10-02T06:01:02.505Z,13.60
2022-10-02T06:03:33.838Z,13.60
2022-10-02T06:06:02.696Z,13.50
2022-10-02T06:08:32.581Z,13.50
2022-10-02T06:11:04.077Z,13.50
2022-10-02T06:13:30.616Z,13.50
2022-10-02T06:16:05.024Z,13.50
2022-10-02T06:18:33.496Z,13.50
2022-10-02T06:21:07.215Z,13.50
2022-10-02T06:23:37.345Z,13.50
2022-10-02T06:26:11.398Z,13.50
2022-10-02T06:28:40.752Z,13.40
2022-10-02T06:31:25.968Z,13.40
2022-10-02T06:33:53.071Z,13.50
2022-10-02T06:36:25.902Z,13.50
2022-10-02T06:39:14.146Z,13.50
2022-10-02T06:41:56.660Z,13.60
2022-10-02T06:44:27.882Z,13.60
2022-10-02T06:47:00.647Z,13.70
2022-10-02T06:49:35.143Z,13.70
2022-10-02T06:52:19.860Z,13.80
2022-10-02T06:54:46.481Z,13.80
2022-10-02T06:57:23.566Z,13.90
2022-10-02T07:00:02.528Z,13.80
2022-10-02T07:02:40.986Z,13.90
2022-10-02T07:05:16.347Z,13.90
2022-10-02T07:07:52.007Z,13.90
2022-10-02T07:10:36.366Z,13.90
2022-10-02T07:13:09.331Z,13.90
2022-10-02T07:15:54.577Z,14.00
2022-10-02T07:18:32.087Z,14.00
2022-10-02T07:21:17.138Z,14.00
2022-10-02T07:24:00.133Z,14.10
2022-10-02T07:26:37.328Z,14.10
2022-10-02T07:29:04.213Z,14.20
2022-10-02T07:31:49.554Z,14.20
2022-10-02T07:34:45.562Z,14.30
2022-10-02T07:37:32.428Z,14.30
2022-10-02T07:39:59.024Z,14.30
2022-10-02T07:42:25.592Z,14.40
2022-10-02T07:45:01.012Z,14.40
2022-10-02T07:47:27.738Z,14.50
2022-10-02T07:49:54.293Z,14.60
2022-10-02T07:52:44.545Z,14.50
2022-10-02T07:55:15.918Z,14.60
2022-10-02T07:57:49.458Z,14.60
2022-10-02T08:00:17.431Z,14.70
2022-10-02T08:02:48.769Z,14.70
2022-10-02T08:05:20.340Z,14.80
2022-10-02T08:07:50.581Z,14.90
2022-10-02T08:10:20.345Z,15.00
2022-10-02T08:12:53.851Z,15.00
2022-10-02T08:15:20.867Z,15.10
2022-10-02T08:18:16.450Z,15.20
2022-10-02T08:20:46.596Z,15.30
2022-10-02T08:23:20.933Z,15.30
2022-10-02T08:25:50.369Z,15.40
2022-10-02T08:28:35.668Z,15.40
2022-10-02T08:31:05.305Z,15.50
2022-10-02T08:33:32.298Z,15.50
2022-10-02T08:36:16.703Z,15.50
2022-10-02T08:38:43.277Z,15.60
2022-10-02T08:41:28.570Z,15.70
2022-10-02T08:44:07.398Z,15.70
2022-10-02T08:46:34.308Z,15.80
2022-10-02T08:49:13.404Z,15.90
2022-10-02T08:51:58.758Z,15.90
2022-10-02T08:54:54.387Z,16.00
2022-10-02T08:57:23.748Z,16.10
2022-10-02T09:00:10.054Z,16.10
2022-10-02T09:02:55.569Z,16.20
2022-10-02T09:05:41.064Z,16.20
2022-10-02T09:08:20.219Z,16.30
2022-10-02T09:11:12.388Z,16.40
2022-10-02T09:13:57.625Z,16.60
2022-10-02T09:16:40.271Z,16.70
2022-10-02T09:19:19.180Z,16.70
2022-10-02T09:21:51.473Z,16.80
2022-10-02T09:24:36.893Z,16.80
2022-10-02T09:27:25.054Z,16.80
2022-10-02T09:30:03.953Z,16.80
2022-10-02T09:32:49.504Z,16.80
2022-10-02T09:35:22.984Z,16.80
2022-10-02T09:38:08.965Z,16.80
2022-10-02T09:40:48.694Z,16.80
2022-10-02T09:43:18.265Z,16.80
2022-10-02T09:46:03.699Z,16.80
2022-10-02T09:48:49.411Z,16.90
2022-10-02T09:51:27.827Z,17.00
2022-10-02T09:54:07.037Z,17.10
2022-10-02T09:56:45.944Z,17.10
2022-10-02T09:59:18.960Z,17.20
2022-10-02T10:02:01.889Z,17.20
2022-10-02T10:05:05.121Z,17.30
2022-10-02T10:07:51.111Z,17.40
2022-10-02T10:10:38.019Z,17.40
2022-10-02T10:13:06.542Z,17.40
2022-10-02T10:15:36.150Z,17.40
2022-10-02T10:18:04.233Z,17.50
2022-10-02T10:20:43.033Z,17.40
2022-10-02T10:23:09.716Z,17.50
2022-10-02T10:25:39.357Z,17.50
2022-10-02T10:28:20.083Z,17.50
2022-10-02T10:30:52.894Z,17.60
2022-10-02T10:33:38.421Z,17.60
2022-10-02T10:36:46.596Z,17.70
2022-10-02T10:39:16.452Z,17.80
2022-10-02T10:42:01.698Z,18.00
2022-10-02T10:44:34.420Z,18.10
2022-10-02T10:47:20.278Z,18.10
2022-10-02T10:49:47.554Z,18.20
2022-10-02T10:52:20.112Z,18.30
2022-10-02T10:55:02.110Z,18.30
2022-10-02T10:57:29.430Z,18.30
2022-10-02T11:00:15.762Z,18.30
2022-10-02T11:02:48.530Z,18.30
2022-10-02T11:05:34.647Z,18.10
2022-10-02T11:08:21.043Z,18.00
2022-10-02T11:10:55.031Z,17.90
2022-10-02T11:13:27.854Z,17.80
2022-10-02T11:16:06.394Z,17.70
2022-10-02T11:18:40.364Z,17.70
2022-10-02T11:21:12.784Z,17.80
2022-10-02T11:23:58.601Z,17.80
2022-10-02T11:26:39.289Z,18.00
2022-10-02T11:29:27.758Z,18.20
2022-10-02T11:32:10.018Z,18.40
2022-10-02T11:34:38.081Z,18.50
2022-10-02T11:37:24.286Z,18.50
2022-10-02T11:39:59.745Z,18.50
2022-10-02T11:42:33.571Z,18.50
2022-10-02T11:45:04.248Z,18.50
2022-10-02T11:47:52.175Z,18.60
2022-10-02T11:50:26.403Z,18.70
2022-10-02T11:53:06.840Z,18.80
2022-10-02T11:55:33.461Z,18.80
2022-10-02T11:58:08.648Z,18.90
2022-10-02T12:00:52.204Z,19.10
2022-10-02T12:03:29.791Z,19.30
2022-10-02T12:05:59.415Z,19.40
2022-10-02T12:08:46.700Z,19.60
2022-10-02T12:11:25.847Z,19.60
2022-10-02T12:14:11.090Z,19.60
2022-10-02T12:16:43.823Z,19.70
2022-10-02T12:19:29.178Z,19.90
2022-10-02T12:22:20.795Z,20.10
2022-10-02T12:25:12.551Z,20.00
2022-10-02T12:27:51.907Z,19.80
2022-10-02T12:30:20.265Z,19.70
2022-10-02T12:32:58.844Z,19.50
2022-10-02T12:35:35.769Z,19.40
2022-10-02T12:38:09.674Z,19.60
2022-10-02T12:40:45.766Z,19.90
2022-10-02T12:43:18.167Z,20.20
2022-10-02T12:45:50.782Z,20.40
2022-10-02T12:48:30.814Z,21.00
2022-10-02T12:51:08.282Z,22.00
2022-10-02T12:53:36.036Z,23.30
2022-10-02T12:56:07.001Z,24.10
2022-10-02T12:58:39.583Z,24.10
2022-10-02T13:01:30.644Z,24.10
2022-10-02T13:04:29.894Z,24.70
2022-10-02T13:07:08.076Z,24.60
2022-10-02T13:09:42.275Z,24.10
2022-10-02T13:12:11.939Z,23.70
2022-10-02T13:14:44.672Z,23.80
2022-10-02T13:17:25.465Z,23.70
2022-10-02T13:19:54.830Z,23.80
2022-10-02T13:22:41.025Z,24.40
2022-10-02T13:25:16.673Z,25.30
2022-10-02T13:27:49.669Z,26.70
2022-10-02T13:30:25.939Z,28.00
2022-10-02T13:32:55.569Z,28.90
2022-10-02T13:35:22.204Z,29.20
2022-10-02T13:37:57.199Z,28.50
2022-10-02T13:40:42.283Z,27.70
2022-10-02T13:43:26.696Z,26.70
2022-10-02T13:46:13.607Z,25.60
2022-10-02T13:49:02.762Z,24.70
2022-10-02T13:51:39.174Z,23.80
2022-10-02T13:54:06.000Z,23.70
2022-10-02T13:56:39.756Z,24.90
2022-10-02T13:59:25.037Z,26.20
2022-10-02T14:02:07.014Z,27.40
2022-10-02T14:04:52.951Z,28.00
2022-10-02T14:07:28.599Z,28.60
2022-10-02T14:10:01.063Z,29.50
2022-10-02T14:12:27.827Z,30.10
2022-10-02T14:14:56.216Z,30.90
2022-10-02T14:17:28.871Z,31.50
2022-10-02T14:19:58.466Z,31.80
2022-10-02T14:22:34.278Z,32.30
2022-10-02T14:25:07.143Z,32.80
2022-10-02T14:27:52.569Z,33.60
2022-10-02T14:30:21.395Z,34.10
2022-10-02T14:33:06.891Z,34.50
2022-10-02T14:35:35.003Z,34.50
2022-10-02T14:38:10.126Z,33.30
2022-10-02T14:40:42.676Z,32.10
2022-10-02T14:43:21.189Z,31.00
2022-10-02T14:45:58.510Z,30.00
2022-10-02T14:48:25.256Z,29.30
2022-10-02T14:50:51.935Z,28.40
2022-10-02T14:53:37.393Z,27.80
2022-10-02T14:56:22.970Z,27.10
2022-10-02T14:58:49.623Z,26.60
2022-10-02T15:01:23.459Z,26.20
2022-10-02T15:04:08.931Z,25.90
2022-10-02T15:06:55.707Z,25.50
2022-10-02T15:09:24.695Z,25.10
2022-10-02T15:12:06.907Z,24.70
2022-10-02T15:14:37.955Z,24.40
2022-10-02T15:17:27.689Z,24.00
2022-10-02T15:20:06.819Z,23.60
2022-10-02T15:22:46.625Z,23.20
2022-10-02T15:25:18.202Z,22.90
2022-10-02T15:27:52.176Z,22.60
2022-10-02T15:30:22.644Z,22.30
2022-10-02T15:33:18.974Z,22.20
2022-10-02T15:35:50.300Z,22.20
2022-10-02T15:38:20.230Z,22.00
2022-10-02T15:40:56.090Z,21.90
2022-10-02T15:43:38.051Z,21.80
2022-10-02T15:46:14.153Z,21.70
2022-10-02T15:48:51.581Z,21.50
2022-10-02T15:51:25.268Z,21.30
2022-10-02T15:53:58.108Z,21.20
2022-10-02T15:56:43.924Z,21.00
2022-10-02T15:59:16.384Z,20.90
2022-10-02T16:01:46.411Z,20.70
2022-10-02T16:04:18.326Z,20.60
2022-10-02T16:06:56.759Z,20.60
2022-10-02T16:09:26.462Z,20.50
2022-10-02T16:12:02.496Z,20.50
2022-10-02T16:14:35.065Z,20.50
2022-10-02T16:17:01.976Z,20.40
2022-10-02T16:19:48.606Z,20.30
2022-10-02T16:22:17.914Z,20.20
2022-10-02T16:24:47.464Z,20.10
2022-10-02T16:27:14.103Z,20.00
2022-10-02T16:29:58.351Z,19.90
2022-10-02T16:32:43.943Z,19.80
2022-10-02T16:35:26.479Z,19.80
2022-10-02T16:38:06.441Z,19.70
2022-10-02T16:40:33.182Z,19.60
2022-10-02T16:43:18.606Z,19.50
2022-10-02T16:45:57.680Z,19.40
2022-10-02T16:48:47.760Z,19.30
2022-10-02T16:51:17.554Z,19.20
2022-10-02T16:53:49.797Z,19.20
2022-10-02T16:56:32.485Z,19.20
2022-10-02T16:59:09.688Z,19.10
2022-10-02T17:02:17.632Z,19.10
2022-10-02T17:05:03.784Z,19.00
2022-10-02T17:07:36.317Z,18.90
2022-10-02T17:10:18.978Z,18.90
2022-10-02T17:12:53.891Z,18.80
2022-10-02T17:15:21.899Z,18.70
2022-10-02T17:17:55.243Z,18.60
2022-10-02T17:20:26.945Z,18.60
2022-10-02T17:23:01.055Z,18.50
2022-10-02T17:25:35.692Z,18.40
2022-10-02T17:28:28.606Z,18.30
2022-10-02T17:31:01.905Z,18.20
2022-10-02T17:33:40.099Z,18.10
2022-10-02T17:36:27.109Z,18.00
2022-10-02T17:39:04.143Z,17.90
2022-10-02T17:41:51.143Z,17.80
2022-10-02T17:44:22.296Z,17.80
2022-10-02T17:47:07.517Z,17.70
2022-10-02T17:49:40.784Z,17.60
2022-10-02T17:52:45.037Z,17.60
2022-10-02T17:55:36.403Z,17.50
2022-10-02T17:58:02.996Z,17.40
2022-10-02T18:00:31.661Z,17.30
2022-10-02T18:03:10.593Z,17.30
2022-10-02T18:05:50.896Z,17.30
2022-10-02T18:08:30.736Z,17.20
2022-10-02T18:11:08.197Z,17.20
2022-10-02T18:13:39.257Z,17.20
2022-10-02T18:16:05.834Z,17.10
2022-10-02T18:18:35.416Z,17.10
2022-10-02T18:21:03.300Z,17.00
2022-10-02T18:23:29.855Z,17.00
2022-10-02T18:26:18.943Z,17.00
2022-10-02T18:29:04.767Z,16.90
2022-10-02T18:31:55.931Z,16.80
2022-10-02T18:34:32.923Z,16.80
2022-10-02T18:37:20.327Z,16.70
2022-10-02T18:40:07.354Z,16.70
2022-10-02T18:42:40.919Z,16.60
2022-10-02T18:45:29.069Z,16.60
2022-10-02T18:48:06.067Z,16.50
2022-10-02T18:50:44.264Z,16.50
2022-10-02T18:53:25.512Z,16.50
2022-10-02T18:56:08.273Z,16.50
2022-10-02T18:58:54.600Z,16.50
2022-10-02T19:01:34.245Z,16.40
2022-10-02T19:04:16.047Z,16.40
2022-10-02T19:06:52.259Z,16.30
2022-10-02T19:09:23.575Z,16.30
2022-10-02T19:11:56.122Z,16.30
2022-10-02T19:14:33.530Z,16.30
2022-10-02T19:17:05.808Z,16.30
2022-10-02T19:19:33.220Z,16.20
2022-10-02T19:22:09.691Z,16.20
2022-10-02T19:24:38.287Z,16.20
2022-10-02T19:27:06.999Z,16.10
2022-10-02T19:29:41.719Z,16.10
2022-10-02T19:32:10.805Z,16.00
2022-10-02T19:34:37.824Z,15.90
2022-10-02T19:37:06.193Z,15.90
2022-10-02T19:39:37.079Z,15.90
2022-10-02T19:42:07.816Z,15.80
2022-10-02T19:44:55.288Z,15.80
2022-10-02T19:47:27.228Z,15.80
2022-10-02T19:49:56.651Z,15.70
2022-10-02T19:52:33.377Z,15.70
2022-10-02T19:55:04.314Z,15.70
2022-10-02T19:57:33.348Z,15.60
2022-10-02T20:00:02.074Z,15.60
2022-10-02T20:02:39.662Z,15.60
2022-10-02T20:05:08.456Z,15.50
2022-10-02T20:07:36.985Z,15.60
2022-10-02T20:10:09.628Z,15.50
2022-10-02T20:12:38.810Z,15.50
2022-10-02T20:15:47.548Z,15.40
2022-10-02T20:18:15.060Z,15.40
2022-10-02T20:20:44.648Z,15.40
2022-10-02T20:23:13.805Z,15.40
2022-10-02T20:25:45.388Z,15.30
2022-10-02T20:28:22.743Z,15.30
2022-10-02T20:30:54.635Z,15.30
2022-10-02T20:33:36.724Z,15.30
2022-10-02T20:36:08.166Z,15.20
2022-10-02T20:38:38.121Z,15.20
2022-10-02T20:41:11.568Z,15.20
2022-10-02T20:43:45.807Z,15.20
2022-10-02T20:46:31.415Z,15.20
2022-10-02T20:49:16.561Z,15.10
2022-10-02T20:51:51.747Z,15.10
2022-10-02T20:54:40.857Z,15.10
2022-10-02T20:57:43.319Z,15.10
2022-10-02T21:00:23.435Z,15.00
2022-10-02T21:03:10.301Z,15.00
2022-10-02T21:05:47.225Z,15.00
2022-10-02T21:08:26.759Z,15.00
2022-10-02T21:11:13.320Z,14.90
2022-10-02T21:13:52.468Z,14.90
2022-10-02T21:16:26.643Z,14.90
2022-10-02T21:19:04.333Z,14.90
2022-10-02T21:21:37.116Z,14.90
2022-10-02T21:24:14.185Z,14.90
2022-10-02T21:26:53.232Z,14.80
2022-10-02T21:29:36.113Z,14.80
2022-10-02T21:32:25.727Z,14.80
2022-10-02T21:34:55.187Z,14.80
2022-10-02T21:37:26.852Z,14.80
2022-10-02T21:40:08.896Z,14.70
2022-10-02T21:42:50.755Z,14.70
2022-10-02T21:45:57.297Z,14.70
2022-10-02T21:48:39.234Z,14.70
2022-10-02T21:51:24.426Z,14.70
2022-10-02T21:54:11.463Z,14.60
2022-10-02T21:56:56.837Z,14.60
2022-10-02T21:59:26.422Z,14.60
2022-10-02T22:02:08.682Z,14.50
2022-10-02T22:04:44.847Z,14.50
2022-10-02T22:07:26.064Z,14.40
2022-10-02T22:10:02.179Z,14.40
2022-10-02T22:12:43.630Z,14.30
2022-10-02T22:15:13.161Z,14.30
2022-10-02T22:17:48.651Z,14.30
2022-10-02T22:20:30.578Z,14.20
2022-10-02T22:23:16.023Z,14.30
2022-10-02T22:25:48.491Z,14.20
2022-10-02T22:28:34.417Z,14.20
2022-10-02T22:31:16.398Z,14.20
2022-10-02T22:33:54.043Z,14.20
2022-10-02T22:36:26.665Z,14.20
2022-10-02T22:39:00.953Z,14.10
2022-10-02T22:41:38.423Z,14.10
2022-10-02T22:44:17.152Z,14.10
2022-10-02T22:46:49.780Z,14.10
2022-10-02T22:49:20.576Z,14.10
2022-10-02T22:52:02.378Z,14.10
2022-10-02T22:54:38.869Z,14.10
2022-10-02T22:57:18.017Z,14.10
2022-10-02T22:59:44.609Z,14.00
2022-10-02T23:02:11.212Z,14.00
2022-10-02T23:04:49.992Z,14.00
2022-10-02T23:07:22.918Z,13.90
2022-10-02T23:10:13.375Z,13.90
2022-10-02T23:12:52.612Z,13.80
2022-10-02T23:15:22.023Z,13.70
2022-10-02T23:17:53.058Z,13.60
2022-10-02T23:20:23.470Z,13.60
2022-10-02T23:22:59.704Z,13.60
2022-10-02T23:25:28.852Z,13.60
2022-10-02T23:28:04.835Z,13.60
2022-10-02T23:30:33.444Z,13.60
2022-10-02T23:33:06.917Z,13.60
2022-10-02T23:35:33.478Z,13.50
2022-10-02T23:38:23.677Z,13.50
2022-10-02T23:41:17.844Z,13.50
2022-10-02T23:43:48.697Z,13.50
2022-10-02T23:46:22.159Z,13.50
2022-10-02T23:48:49.927Z,13.50
2022-10-02T23:51:21.893Z,13.50
2022-10-02T23:53:48.838Z,13.50
2022-10-02T23:56:27.875Z,13.50
2022-10-02T23:59:13.307Z,13.50
